Time;durP1;ratioP1;P1;durP2;ratioP2;P2;SDS_P1;SDS_P2;PMS_P1;PMS_P2;Temp;Humidity;BMP_temperature;BMP_pressure;BME280_temperature;BME280_humidity;BME280_pressure;Samples;Min_cycle;Max_cycle;Signal;HPM_P1;HPM_P2
2021/04/11 00:01:14;;;;;;;17.83;15.93;;;5.60;99.90;;;;;;5075277;28;20652;-81
2021/04/11 00:03:40;;;;;;;21.93;18.47;;;5.60;99.90;;;;;;5075668;28;20176;-84
2021/04/11 00:06:06;;;;;;;27.27;22.73;;;5.60;99.90;;;;;;5075229;28;20691;-83
2021/04/11 00:08:31;;;;;;;23.80;20.47;;;5.70;99.90;;;;;;5075085;28;20171;-82
2021/04/11 00:11:03;;;;;;;21.50;17.90;;;5.60;99.90;;;;;;5077204;28;20172;-82
2021/04/11 00:13:35;;;;;;;21.23;18.27;;;5.50;99.90;;;;;;5075942;28;20194;-82
2021/04/11 00:16:02;;;;;;;22.80;18.97;;;5.40;99.90;;;;;;5075382;28;20164;-84
2021/04/11 00:18:28;;;;;;;22.50;18.37;;;5.40;99.90;;;;;;5057394;28;20578;-82
2021/04/11 00:20:54;;;;;;;23.30;19.97;;;5.40;99.90;;;;;;5074755;28;20176;-83
2021/04/11 00:23:22;;;;;;;17.53;15.13;;;5.40;99.90;;;;;;5075294;28;20172;-83
2021/04/11 00:25:48;;;;;;;19.63;16.17;;;5.30;99.90;;;;;;5075116;28;20231;-83
2021/04/11 00:28:14;;;;;;;18.97;16.47;;;5.30;99.90;;;;;;5075214;28;20222;-83
2021/04/11 00:30:41;;;;;;;15.47;13.70;;;5.40;99.90;;;;;;5074912;28;20176;-82
2021/04/11 00:33:08;;;;;;;14.43;11.63;;;5.20;99.90;;;;;;5075434;28;20592;-81
2021/04/11 00:35:34;;;;;;;14.80;13.20;;;5.20;99.90;;;;;;5074548;28;21144;-83
2021/04/11 00:38:00;;;;;;;15.87;13.90;;;5.20;99.90;;;;;;5074930;28;20168;-76
2021/04/11 00:40:33;;;;;;;17.70;15.30;;;5.20;99.90;;;;;;5074530;28;20172;-82
2021/04/11 00:43:05;;;;;;;18.60;15.63;;;5.20;99.90;;;;;;5056936;28;20222;-79
2021/04/11 00:45:38;;;;;;;18.47;14.57;;;5.30;99.90;;;;;;5074659;28;20231;-78
2021/04/11 00:48:07;;;;;;;20.60;17.80;;;5.30;99.90;;;;;;5074748;28;20168;-83
2021/04/11 00:50:33;;;;;;;23.93;19.20;;;5.10;99.90;;;;;;5074111;28;20192;-78
2021/04/11 00:52:59;;;;;;;24.43;19.73;;;5.20;99.90;;;;;;5074665;28;20168;-77
2021/04/11 00:55:26;;;;;;;27.40;22.33;;;5.20;99.90;;;;;;5074503;28;20365;-83
2021/04/11 00:57:53;;;;;;;32.43;26.63;;;5.20;99.90;;;;;;5074549;28;20195;-79
2021/04/11 01:00:23;;;;;;;30.57;24.57;;;5.20;99.90;;;;;;5074398;28;20173;-82
2021/04/11 01:02:48;;;;;;;28.93;24.93;;;5.10;99.90;;;;;;5073945;28;20226;-76
2021/04/11 01:05:22;;;;;;;24.10;19.27;;;5.10;99.90;;;;;;5073792;28;20680;-81
2021/04/11 01:07:49;;;;;;;19.83;16.97;;;5.00;99.90;;;;;;5074534;28;20551;-81
2021/04/11 01:10:19;;;;;;;15.40;13.60;;;5.00;99.90;;;;;;5074254;28;20574;-81
2021/04/11 01:12:46;;;;;;;15.80;14.00;;;4.90;99.90;;;;;;5074350;28;20164;-82
2021/04/11 01:15:26;;;;;;;13.33;11.93;;;4.90;99.90;;;;;;5074240;28;20206;-82
2021/04/11 01:17:52;;;;;;;16.53;14.23;;;4.90;99.90;;;;;;5074019;28;20523;-83
2021/04/11 01:20:20;;;;;;;16.80;14.57;;;4.90;99.90;;;;;;5073834;28;20560;-84
2021/04/11 01:23:10;;;;;;;17.47;14.13;;;4.90;99.90;;;;;;5074097;28;20251;-82
2021/04/11 01:25:38;;;;;;;17.87;15.40;;;4.90;99.90;;;;;;5073951;28;20214;-83
2021/04/11 01:28:15;;;;;;;17.67;15.10;;;4.70;99.90;;;;;;5055864;28;20524;-82
2021/04/11 01:30:43;;;;;;;19.73;16.73;;;4.70;99.90;;;;;;5056097;28;20180;-83
2021/04/11 01:33:13;;;;;;;19.33;15.50;;;4.80;99.90;;;;;;5073863;28;20705;-80
2021/04/11 01:35:40;;;;;;;17.03;14.43;;;4.80;99.90;;;;;;5073647;28;20184;-84
2021/04/11 01:38:07;;;;;;;14.93;12.40;;;4.70;99.90;;;;;;5074325;28;20172;-83
2021/04/11 01:40:50;;;;;;;15.17;12.57;;;4.70;99.90;;;;;;5073740;28;20179;-83
2021/04/11 01:43:16;;;;;;;13.63;11.10;;;4.70;99.90;;;;;;5073721;28;20172;-81
2021/04/11 01:45:43;;;;;;;13.20;11.23;;;4.70;99.90;;;;;;5073630;28;20246;-83
2021/04/11 01:48:10;;;;;;;11.13;9.50;;;4.70;99.90;;;;;;5055411;28;20172;-84
2021/04/11 01:50:38;;;;;;;8.63;7.40;;;4.70;99.90;;;;;;5073913;28;20180;-82
2021/04/11 01:53:04;;;;;;;10.73;9.63;;;4.70;99.90;;;;;;5073696;28;20203;-82
2021/04/11 01:55:31;;;;;;;10.93;9.10;;;4.60;99.90;;;;;;5074036;28;20247;-84
2021/04/11 01:57:57;;;;;;;12.57;10.00;;;4.60;99.90;;;;;;5073816;28;20168;-81
2021/04/11 02:00:37;;;;;;;12.37;9.97;;;4.60;99.90;;;;;;5073052;28;20172;-80
2021/04/11 02:03:10;;;;;;;11.87;10.27;;;4.60;99.90;;;;;;5073496;28;20172;-83
2021/04/11 02:05:41;;;;;;;13.90;11.80;;;4.60;99.90;;;;;;5073363;28;20302;-82
2021/04/11 02:08:11;;;;;;;17.63;14.63;;;4.60;99.90;;;;;;5073435;28;20250;-80
2021/04/11 02:10:42;;;;;;;17.67;14.50;;;4.60;99.90;;;;;;5073441;28;20181;-81
2021/04/11 02:13:08;;;;;;;21.13;17.47;;;4.60;99.90;;;;;;5073288;28;20218;-82
2021/04/11 02:15:39;;;;;;;22.63;18.47;;;4.60;99.90;;;;;;5073259;28;20183;-81
2021/04/11 02:18:05;;;;;;;26.87;21.37;;;4.60;99.90;;;;;;5073038;28;20182;-82
2021/04/11 02:20:31;;;;;;;25.47;21.20;;;4.60;99.90;;;;;;5073240;28;20259;-82
2021/04/11 02:22:57;;;;;;;27.17;19.83;;;4.60;99.90;;;;;;5073118;28;20172;-81
2021/04/11 02:25:29;;;;;;;30.33;24.17;;;4.60;99.90;;;;;;5073016;28;20215;-83
2021/04/11 02:27:55;;;;;;;28.50;23.33;;;4.60;99.90;;;;;;5072915;28;20236;-81
2021/04/11 02:30:23;;;;;;;35.33;29.23;;;4.70;99.90;;;;;;5073146;28;20176;-83
2021/04/11 02:32:49;;;;;;;30.40;24.53;;;4.70;99.90;;;;;;5072949;28;20211;-81
2021/04/11 02:35:18;;;;;;;31.27;23.83;;;4.70;99.90;;;;;;5074804;28;20180;-83
2021/04/11 02:37:45;;;;;;;33.63;27.37;;;4.70;99.90;;;;;;5073293;28;20633;-83
2021/04/11 02:40:19;;;;;;;32.20;24.93;;;4.70;99.90;;;;;;5072959;28;20167;-82
2021/04/11 02:42:45;;;;;;;33.83;24.90;;;4.60;99.90;;;;;;5072973;28;20183;-83
2021/04/11 02:45:15;;;;;;;32.73;26.00;;;4.60;99.90;;;;;;5073149;28;20196;-82
2021/04/11 02:47:41;;;;;;;35.00;26.30;;;4.60;99.90;;;;;;5072713;28;20189;-81
2021/04/11 02:50:08;;;;;;;29.80;23.07;;;4.70;99.90;;;;;;5072802;28;20196;-83
2021/04/11 02:52:43;;;;;;;33.17;25.13;;;4.70;99.90;;;;;;5073170;28;20176;-82
2021/04/11 02:55:12;;;;;;;30.93;23.60;;;4.60;99.90;;;;;;5072902;28;20176;-81
2021/04/11 02:57:38;;;;;;;29.77;24.30;;;4.60;99.90;;;;;;5055000;28;20173;-82
2021/04/11 03:00:09;;;;;;;21.80;16.63;;;4.50;99.90;;;;;;5072757;28;20175;-82
2021/04/11 03:02:34;;;;;;;21.33;17.70;;;4.50;99.90;;;;;;5072613;28;20536;-83
2021/04/11 03:05:00;;;;;;;16.77;13.67;;;4.50;99.90;;;;;;5073237;28;20311;-82
2021/04/11 03:07:36;;;;;;;14.67;11.87;;;4.50;99.90;;;;;;5073418;28;20172;-83
2021/04/11 03:10:15;;;;;;;18.97;15.73;;;4.30;99.90;;;;;;5055111;28;20178;-83
2021/04/11 03:12:41;;;;;;;15.90;13.37;;;4.40;99.90;;;;;;5074242;28;20168;-80
2021/04/11 03:15:08;;;;;;;16.57;14.17;;;4.40;99.90;;;;;;5076453;28;20192;-83
2021/04/11 03:17:34;;;;;;;18.37;15.67;;;4.40;99.90;;;;;;5076812;28;20229;-82
2021/04/11 03:20:09;;;;;;;16.93;13.67;;;4.40;99.90;;;;;;5076245;28;20573;-83
2021/04/11 03:22:36;;;;;;;14.23;12.57;;;4.40;99.90;;;;;;5076533;28;20174;-81
2021/04/11 03:25:04;;;;;;;13.67;11.77;;;4.40;99.90;;;;;;5076342;28;20215;-82
2021/04/11 03:27:41;;;;;;;14.33;12.10;;;4.40;99.90;;;;;;5076245;28;20230;-80
2021/04/11 03:30:26;;;;;;;19.77;17.23;;;4.40;99.90;;;;;;5076044;28;20204;-83
2021/04/11 03:32:59;;;;;;;20.90;17.17;;;4.50;99.90;;;;;;5076579;28;20180;-83
2021/04/11 03:35:29;;;;;;;22.00;19.47;;;4.50;99.90;;;;;;5075974;28;20191;-83
2021/04/11 03:37:58;;;;;;;22.57;18.07;;;4.40;99.90;;;;;;5076420;28;20226;-82
2021/04/11 03:40:27;;;;;;;23.70;19.97;;;4.40;99.90;;;;;;5075941;28;20598;-82
2021/04/11 03:42:59;;;;;;;19.33;15.53;;;4.50;99.90;;;;;;5076174;28;20513;-79
2021/04/11 03:45:28;;;;;;;18.77;15.13;;;4.50;99.90;;;;;;5075454;28;20192;-81
2021/04/11 03:47:58;;;;;;;18.93;16.90;;;4.40;99.90;;;;;;5075967;28;20176;-82
2021/04/11 03:50:24;;;;;;;17.17;15.30;;;4.50;99.90;;;;;;5075513;28;20241;-83
2021/04/11 03:52:59;;;;;;;15.63;13.60;;;4.50;99.90;;;;;;5076053;28;20180;-82
2021/04/11 03:55:28;;;;;;;15.53;13.77;;;4.50;99.90;;;;;;5075565;28;20168;-81
2021/04/11 03:57:59;;;;;;;13.40;12.00;;;4.50;99.90;;;;;;5075854;28;20251;-81
2021/04/11 04:00:32;;;;;;;15.03;13.43;;;4.50;99.90;;;;;;5075115;28;20753;-80
2021/04/11 04:03:06;;;;;;;13.93;12.30;;;4.50;99.90;;;;;;5057831;28;20636;-82
2021/04/11 04:05:34;;;;;;;12.57;11.03;;;4.50;99.90;;;;;;5075457;28;20216;-81
2021/04/11 04:08:00;;;;;;;10.93;9.73;;;4.50;99.90;;;;;;5075578;28;20201;-81
2021/04/11 04:10:30;;;;;;;12.40;10.80;;;4.50;99.90;;;;;;5075482;28;20164;-82
2021/04/11 04:13:10;;;;;;;13.53;11.47;;;4.50;99.90;;;;;;5075294;28;20171;-83
2021/04/11 04:16:05;;;;;;;13.83;11.97;;;4.50;99.90;;;;;;5057443;28;20263;-81
2021/04/11 04:18:49;;;;;;;16.13;13.70;;;4.60;99.90;;;;;;5070152;28;20192;-82
2021/04/11 04:21:50;;;;;;;16.27;14.17;;;4.60;99.90;;;;;;5075232;28;20214;-81
2021/04/11 04:24:41;;;;;;;16.00;14.13;;;4.50;99.90;;;;;;5074799;28;20164;-82
2021/04/11 04:27:25;;;;;;;15.33;12.87;;;4.60;99.90;;;;;;5075017;28;20250;-80
2021/04/11 04:30:10;;;;;;;14.27;12.30;;;4.50;99.90;;;;;;5074897;28;20261;-80
2021/04/11 04:32:55;;;;;;;14.77;12.50;;;4.50;99.90;;;;;;5057068;28;20176;-80
2021/04/11 04:35:35;;;;;;;16.37;13.57;;;4.50;99.90;;;;;;5074907;28;20251;-81
2021/04/11 04:38:17;;;;;;;14.97;13.13;;;4.60;99.90;;;;;;5057185;28;20199;-79
2021/04/11 04:40:42;;;;;;;11.73;10.40;;;4.60;99.90;;;;;;5074793;28;20165;-79
2021/04/11 04:43:23;;;;;;;10.93;9.73;;;4.50;99.90;;;;;;5074716;28;20210;-83
2021/04/11 04:46:03;;;;;;;11.23;9.23;;;4.60;99.90;;;;;;5074727;28;20215;-84
2021/04/11 04:48:34;;;;;;;11.23;10.03;;;4.50;99.90;;;;;;5074565;28;20183;-82
2021/04/11 04:51:29;;;;;;;11.40;10.20;;;4.50;99.90;;;;;;5074673;28;20576;-83
2021/04/11 04:54:07;;;;;;;12.03;10.63;;;4.50;99.90;;;;;;5056574;28;20172;-82
2021/04/11 04:56:41;;;;;;;12.53;10.47;;;4.40;99.90;;;;;;5074159;28;20215;-82
2021/04/11 04:59:16;;;;;;;11.87;10.67;;;4.50;99.90;;;;;;5074620;28;20613;-80
2021/04/11 05:01:46;;;;;;;11.90;10.70;;;4.50;99.90;;;;;;5074231;28;20230;-81
2021/04/11 05:04:20;;;;;;;9.70;8.73;;;4.60;99.90;;;;;;5074456;28;20211;-83
2021/04/11 05:06:51;;;;;;;7.67;6.93;;;4.60;99.90;;;;;;5074127;28;20219;-79
2021/04/11 05:09:30;;;;;;;7.20;6.47;;;4.60;99.90;;;;;;5074330;28;20165;-82
2021/04/11 05:12:34;;;;;;;5.50;4.90;;;4.50;99.90;;;;;;5074076;28;20592;-83
2021/04/11 05:15:32;;;;;;;5.03;4.20;;;4.50;99.90;;;;;;5056665;28;20183;-81
2021/04/11 05:18:02;;;;;;;5.83;5.13;;;4.40;99.90;;;;;;5067377;28;20594;-83
2021/04/11 05:20:33;;;;;;;5.13;4.63;;;4.50;99.90;;;;;;5074127;28;20161;-83
2021/04/11 05:23:23;;;;;;;5.67;5.07;;;4.50;99.90;;;;;;5056091;28;20184;-83
2021/04/11 05:25:58;;;;;;;6.40;5.40;;;4.50;99.90;;;;;;5073180;28;20231;-80
2021/04/11 05:28:51;;;;;;;7.07;6.20;;;4.50;99.90;;;;;;5055718;28;20183;-82
2021/04/11 05:31:19;;;;;;;8.57;7.77;;;4.50;99.90;;;;;;5073724;28;20259;-81
2021/04/11 05:33:46;;;;;;;8.60;7.70;;;4.50;99.90;;;;;;5073913;28;20172;-82
2021/04/11 05:36:29;;;;;;;6.60;5.87;;;4.50;99.90;;;;;;5073205;28;20172;-83
2021/04/11 05:38:59;;;;;;;6.63;5.93;;;4.50;99.90;;;;;;5073857;28;20214;-81
2021/04/11 05:41:51;;;;;;;6.87;5.63;;;4.50;99.90;;;;;;5073322;28;20226;-78
2021/04/11 05:44:25;;;;;;;7.13;6.43;;;4.50;99.90;;;;;;5055745;28;20176;-81
2021/04/11 05:47:26;;;;;;;7.50;6.17;;;4.50;99.90;;;;;;5073446;28;20241;-84
2021/04/11 05:49:59;;;;;;;7.93;6.17;;;4.60;99.90;;;;;;5073480;28;20180;-83
2021/04/11 05:52:57;;;;;;;7.60;6.57;;;4.50;99.90;;;;;;5073498;28;20179;-83
2021/04/11 05:55:25;;;;;;;7.27;6.47;;;4.50;99.90;;;;;;5012456;28;20229;-84
2021/04/11 05:57:56;;;;;;;7.10;5.90;;;4.50;99.90;;;;;;5055845;28;20168;-84
2021/04/11 06:00:30;;;;;;;7.23;6.20;;;4.60;99.90;;;;;;5073595;28;20230;-80
2021/04/11 06:02:58;;;;;;;7.67;6.37;;;4.50;99.90;;;;;;5073615;28;20255;-81
2021/04/11 06:05:40;;;;;;;7.43;6.53;;;4.50;99.90;;;;;;5073174;28;20216;-83
2021/04/11 06:08:20;;;;;;;9.70;7.53;;;4.50;99.90;;;;;;5073147;28;20180;-83
2021/04/11 06:11:20;;;;;;;7.13;6.23;;;4.50;99.90;;;;;;5055168;28;20243;-83
2021/04/11 06:14:11;;;;;;;7.90;6.67;;;4.50;99.90;;;;;;5073267;28;20187;-82
2021/04/11 06:16:37;;;;;;;8.47;7.67;;;4.50;99.90;;;;;;5073393;28;20183;-82
2021/04/11 06:19:06;;;;;;;7.73;6.43;;;4.60;99.90;;;;;;5073336;28;20177;-83
2021/04/11 06:21:37;;;;;;;7.73;6.93;;;4.60;99.90;;;;;;5073290;28;20172;-81
2021/04/11 06:24:22;;;;;;;7.90;7.10;;;4.60;99.90;;;;;;5073037;28;20172;-82
2021/04/11 06:27:21;;;;;;;7.63;6.83;;;4.60;99.90;;;;;;5073199;28;20212;-82
2021/04/11 06:30:04;;;;;;;8.00;7.20;;;4.60;99.90;;;;;;5072697;28;20673;-81
2021/04/11 06:32:48;;;;;;;8.27;6.87;;;4.60;99.90;;;;;;5055006;28;20259;-77
2021/04/11 06:35:19;;;;;;;6.77;6.07;;;4.60;99.90;;;;;;5073312;28;20195;-82
2021/04/11 06:37:46;;;;;;;6.60;5.40;;;4.60;99.90;;;;;;5072679;28;20179;-76
2021/04/11 06:40:29;;;;;;;7.83;7.03;;;4.60;99.90;;;;;;5072914;28;20632;-83
2021/04/11 06:43:24;;;;;;;6.40;5.80;;;4.60;99.90;;;;;;5072808;28;20160;-81
2021/04/11 06:46:23;;;;;;;7.13;6.43;;;4.60;99.90;;;;;;5072970;28;20200;-81
2021/04/11 06:49:10;;;;;;;7.53;6.70;;;4.60;99.90;;;;;;5076685;28;20165;-77
2021/04/11 06:52:04;;;;;;;7.90;7.10;;;4.60;99.90;;;;;;5076844;28;20219;-81
2021/04/11 06:54:50;;;;;;;6.87;6.20;;;4.70;99.90;;;;;;5076475;28;20623;-83
2021/04/11 06:57:36;;;;;;;8.23;5.87;;;4.70;99.90;;;;;;5058952;28;20180;-78
2021/04/11 07:00:09;;;;;;;7.70;6.63;;;4.70;99.60;;;;;;5076482;28;20200;-82
2021/04/11 07:03:02;;;;;;;8.20;6.40;;;4.80;99.90;;;;;;5076388;28;20191;-83
2021/04/11 07:06:00;;;;;;;7.60;6.80;;;4.80;99.80;;;;;;5076505;28;20207;-85
2021/04/11 07:08:49;;;;;;;8.97;7.13;;;4.80;99.90;;;;;;5075947;28;20628;-84
2021/04/11 07:12:03;;;;;;;8.60;7.70;;;4.90;99.90;;;;;;5058359;28;20248;-81
2021/04/11 07:14:35;;;;;;;8.33;7.40;;;4.90;99.80;;;;;;5076248;28;20641;-79
2021/04/11 07:17:22;;;;;;;9.40;7.73;;;5.10;99.90;;;;;;5058631;28;20203;-83
2021/04/11 07:20:06;;;;;;;10.80;7.50;;;4.90;99.30;;;;;;5075711;28;20511;-84
2021/04/11 07:23:08;;;;;;;8.90;7.40;;;4.90;99.20;;;;;;5057493;28;20203;-77
2021/04/11 07:26:09;;;;;;;11.53;7.73;;;4.90;98.40;;;;;;5075423;28;20522;-78
2021/04/11 07:28:40;;;;;;;8.93;8.07;;;4.90;98.80;;;;;;5076041;28;20187;-85
2021/04/11 07:31:38;;;;;;;8.07;7.27;;;4.90;98.80;;;;;;5075763;28;20160;-83
2021/04/11 07:34:14;;;;;;;7.83;6.77;;;5.00;98.10;;;;;;5014188;28;20211;-77
2021/04/11 07:37:02;;;;;;;6.93;6.23;;;5.00;97.50;;;;;;5075144;28;20349;-77
2021/04/11 07:40:06;;;;;;;8.00;7.20;;;5.00;97.80;;;;;;5075389;28;20251;-77
2021/04/11 07:42:52;;;;;;;9.47;8.13;;;5.00;97.60;;;;;;5075794;28;20190;-85
2021/04/11 07:45:48;;;;;;;7.77;6.63;;;5.10;97.40;;;;;;5075373;28;20219;-83
2021/04/11 07:48:51;;;;;;;6.30;4.97;;;5.10;97.20;;;;;;5075511;28;20216;-76
2021/04/11 07:51:51;;;;;;;7.20;4.93;;;5.00;95.50;;;;;;5057231;28;20279;-76
2021/04/11 07:54:32;;;;;;;5.13;4.23;;;5.00;95.20;;;;;;5075349;28;20247;-77
2021/04/11 07:57:16;;;;;;;6.43;4.23;;;5.00;95.60;;;;;;5075644;28;20173;-76
2021/04/11 07:59:44;;;;;;;4.93;3.57;;;5.10;95.50;;;;;;5074357;28;20663;-77
2021/04/11 08:02:41;;;;;;;4.03;2.80;;;5.10;94.70;;;;;;5057352;28;20172;-77
2021/04/11 08:05:45;;;;;;;3.50;3.20;;;5.10;93.80;;;;;;5074787;28;20204;-77
2021/04/11 08:08:13;;;;;;;4.77;3.20;;;5.10;94.70;;;;;;5023787;28;20259;-76
2021/04/11 08:11:00;;;;;;;5.07;2.70;;;5.20;94.40;;;;;;5075025;28;20187;-76
2021/04/11 08:13:51;;;;;;;4.00;2.40;;;5.20;93.60;;;;;;5075240;28;20234;-76
2021/04/11 08:16:46;;;;;;;3.50;2.80;;;5.20;93.10;;;;;;5074731;28;20172;-77
2021/04/11 08:19:21;;;;;;;4.07;2.80;;;5.20;93.30;;;;;;5074934;28;20183;-78
2021/04/11 08:21:56;;;;;;;3.63;2.50;;;5.30;93.60;;;;;;5074693;28;20639;-77
2021/04/11 08:24:46;;;;;;;6.47;3.37;;;5.40;93.10;;;;;;5074871;28;20163;-78
2021/04/11 08:27:37;;;;;;;5.63;2.73;;;5.40;92.90;;;;;;5074690;28;20664;-76
2021/04/11 08:30:30;;;;;;;3.20;2.00;;;5.40;93.20;;;;;;5074249;28;20180;-77
2021/04/11 08:33:01;;;;;;;3.70;2.27;;;5.40;91.90;;;;;;5074291;28;20176;-79
2021/04/11 08:35:59;;;;;;;5.37;2.40;;;5.40;90.70;;;;;;5074356;28;20214;-77
2021/04/11 08:38:43;;;;;;;5.33;2.50;;;5.40;90.40;;;;;;5074389;28;20510;-77
2021/04/11 08:41:36;;;;;;;3.23;2.40;;;5.40;90.10;;;;;;5074376;28;20202;-76
2021/04/11 08:44:14;;;;;;;4.80;3.53;;;5.50;90.60;;;;;;5073996;28;20628;-76
2021/04/11 08:47:17;;;;;;;2.60;1.83;;;5.60;89.70;;;;;;5073892;28;20199;-79
2021/04/11 08:49:55;;;;;;;3.20;2.10;;;5.60;85.00;;;;;;5055991;28;20164;-77
2021/04/11 08:52:55;;;;;;;3.33;2.10;;;5.60;87.40;;;;;;5073591;28;20232;-78
2021/04/11 08:55:37;;;;;;;3.70;2.10;;;5.60;86.30;;;;;;5055917;28;20226;-78
2021/04/11 08:58:11;;;;;;;3.70;2.40;;;5.60;85.30;;;;;;5073857;28;20164;-80
2021/04/11 09:00:50;;;;;;;2.80;1.80;;;5.70;87.50;;;;;;5074034;28;20222;-77
2021/04/11 09:03:21;;;;;;;4.70;2.23;;;5.60;83.80;;;;;;5056046;28;20176;-77
2021/04/11 09:06:04;;;;;;;2.80;2.10;;;5.70;82.10;;;;;;5055801;28;20239;-76
2021/04/11 09:08:51;;;;;;;6.13;1.90;;;5.80;83.60;;;;;;5073613;28;20217;-77
2021/04/11 09:11:35;;;;;;;3.83;1.70;;;5.90;77.30;;;;;;5073572;28;20168;-78
2021/04/11 09:14:33;;;;;;;2.00;1.40;;;5.80;75.80;;;;;;5055509;28;20169;-77
2021/04/11 09:17:21;;;;;;;5.27;2.33;;;5.80;75.50;;;;;;5073444;28;20176;-78
2021/04/11 09:20:02;;;;;;;4.53;2.10;;;6.00;78.50;;;;;;5075105;28;20639;-77
2021/04/11 09:22:35;;;;;;;4.50;2.80;;;6.10;76.40;;;;;;5073415;28;20168;-84
2021/04/11 09:25:27;;;;;;;5.13;1.73;;;6.10;72.20;;;;;;5073423;28;20200;-78
2021/04/11 09:28:04;;;;;;;3.37;1.70;;;6.20;71.90;;;;;;5073212;28;20169;-78
2021/04/11 09:31:05;;;;;;;4.47;2.07;;;6.30;69.00;;;;;;5073379;28;20172;-77
2021/04/11 09:34:09;;;;;;;2.33;1.73;;;6.40;68.40;;;;;;5072894;28;20173;-77
2021/04/11 09:36:57;;;;;;;3.53;1.60;;;6.40;59.30;;;;;;5073188;28;20524;-78
2021/04/11 09:39:40;;;;;;;3.50;1.73;;;6.30;58.00;;;;;;5054798;28;20252;-79
2021/04/11 09:42:18;;;;;;;1.93;1.50;;;6.30;58.40;;;;;;5072918;28;20567;-80
2021/04/11 09:45:12;;;;;;;5.13;1.80;;;6.20;55.10;;;;;;5073193;28;20215;-79
2021/04/11 09:48:11;;;;;;;2.97;1.77;;;6.20;56.30;;;;;;5072656;28;20173;-77
2021/04/11 09:50:49;;;;;;;2.40;1.50;;;6.20;57.60;;;;;;5072695;28;20719;-77
2021/04/11 09:53:36;;;;;;;3.73;1.70;;;6.20;53.10;;;;;;5072677;28;20176;-77
2021/04/11 09:56:29;;;;;;;5.00;2.00;;;6.20;55.00;;;;;;5072770;28;20620;-78
2021/04/11 09:59:33;;;;;;;2.70;1.63;;;6.20;56.00;;;;;;5072977;28;20671;-78
2021/04/11 10:02:19;;;;;;;4.03;1.60;;;6.20;55.20;;;;;;5057244;28;20750;-80
2021/04/11 10:05:25;;;;;;;6.53;1.97;;;6.30;56.20;;;;;;5072703;28;20552;-77
2021/04/11 10:08:20;;;;;;;4.43;1.57;;;6.40;52.60;;;;;;4971771;28;20198;-77
2021/04/11 10:11:07;;;;;;;3.03;1.87;;;6.40;54.30;;;;;;5072907;28;20251;-77
2021/04/11 10:13:46;;;;;;;4.40;1.80;;;6.40;54.70;;;;;;5072924;28;20577;-77
2021/04/11 10:16:34;;;;;;;4.93;2.23;;;6.40;56.50;;;;;;5072409;28;20221;-78
2021/04/11 10:19:23;;;;;;;4.17;2.40;;;6.50;58.80;;;;;;5054493;28;20561;-78
2021/04/11 10:21:59;;;;;;;8.07;2.13;;;6.60;56.80;;;;;;5072045;28;20169;-79
2021/04/11 10:24:33;;;;;;;5.63;1.80;;;6.60;56.40;;;;;;5072003;28;20624;-77
2021/04/11 10:27:23;;;;;;;5.63;2.13;;;6.50;54.90;;;;;;5072437;28;20215;-77
2021/04/11 10:29:50;;;;;;;5.03;1.97;;;6.40;55.80;;;;;;5040398;28;20564;-78
2021/04/11 10:32:37;;;;;;;6.20;2.10;;;6.40;58.80;;;;;;5072506;28;20612;-78
2021/04/11 10:35:11;;;;;;;6.63;2.13;;;6.40;59.10;;;;;;5072596;28;20196;-76
2021/04/11 10:37:53;;;;;;;3.70;1.87;;;6.50;60.80;;;;;;5072455;28;20167;-76
2021/04/11 10:40:55;;;;;;;4.77;2.30;;;6.50;59.20;;;;;;5072338;28;20176;-78
2021/04/11 10:43:55;;;;;;;3.43;2.00;;;6.50;63.00;;;;;;5072267;28;20632;-77
2021/04/11 10:46:23;;;;;;;3.27;2.03;;;6.60;64.60;;;;;;5071903;28;20241;-77
2021/04/11 10:49:10;;;;;;;2.70;1.73;;;6.60;56.80;;;;;;5053997;28;20165;-77
2021/04/11 10:52:05;;;;;;;2.33;1.70;;;6.60;48.40;;;;;;5072212;28;20260;-78
2021/04/11 10:55:01;;;;;;;4.67;2.00;;;6.50;48.60;;;;;;5071780;28;20180;-77
2021/04/11 10:57:42;;;;;;;4.00;1.80;;;6.50;46.70;;;;;;5054061;28;20628;-78
2021/04/11 11:00:29;;;;;;;10.53;2.20;;;6.60;49.40;;;;;;5071714;28;20546;-79
2021/04/11 11:03:23;;;;;;;2.13;1.37;;;6.60;50.80;;;;;;5072325;28;20179;-77
2021/04/11 11:05:59;;;;;;;6.37;2.00;;;6.60;48.60;;;;;;5072078;28;20616;-77
2021/04/11 11:08:51;;;;;;;2.40;1.70;;;6.60;52.50;;;;;;5072011;28;20164;-78
2021/04/11 11:11:29;;;;;;;4.03;2.30;;;6.60;50.50;;;;;;5071493;28;20171;-78
2021/04/11 11:14:13;;;;;;;4.47;2.00;;;6.60;53.50;;;;;;5053062;28;20168;-77
2021/04/11 11:17:04;;;;;;;3.20;1.70;;;6.70;51.50;;;;;;5071773;28;20160;-77
2021/04/11 11:20:01;;;;;;;4.90;2.67;;;6.70;50.10;;;;;;5070930;28;20172;-77
2021/04/11 11:22:57;;;;;;;6.33;2.20;;;6.80;52.80;;;;;;5071499;28;20247;-78
2021/04/11 11:25:41;;;;;;;5.33;2.40;;;6.90;48.40;;;;;;5071710;28;20279;-78
2021/04/11 11:28:20;;;;;;;5.30;2.60;;;7.00;47.30;;;;;;5053196;28;20257;-80
2021/04/11 11:30:58;;;;;;;4.80;2.53;;;7.10;45.50;;;;;;5071662;28;20176;-75
2021/04/11 11:33:36;;;;;;;7.40;2.33;;;7.30;39.80;;;;;;5072024;28;20164;-80
2021/04/11 11:36:21;;;;;;;6.27;2.00;;;7.40;38.50;;;;;;5074919;28;20176;-77
2021/04/11 11:39:03;;;;;;;4.50;1.63;;;7.40;28.90;;;;;;5074964;28;20506;-79
2021/04/11 11:41:35;;;;;;;3.83;1.87;;;7.20;27.00;;;;;;5075254;28;20253;-79
2021/04/11 11:44:08;;;;;;;4.07;2.10;;;7.30;34.40;;;;;;5074544;28;20299;-78
2021/04/11 11:47:05;;;;;;;4.60;2.13;;;7.30;30.80;;;;;;5074743;28;20207;-80
2021/04/11 11:49:42;;;;;;;3.80;2.30;;;7.40;32.80;;;;;;5057076;28;20175;-78
2021/04/11 11:52:11;;;;;;;4.37;1.90;;;7.40;29.20;;;;;;5074887;28;20168;-77
2021/04/11 11:54:47;;;;;;;5.13;2.27;;;7.40;20.50;;;;;;5074751;28;20167;-78
2021/04/11 11:57:20;;;;;;;5.07;2.40;;;7.40;28.50;;;;;;5074422;28;20206;-78
2021/04/11 12:00:13;;;;;;;4.57;2.50;;;7.50;29.80;;;;;;5074634;28;20637;-77
2021/04/11 12:02:56;;;;;;;3.60;2.27;;;7.60;24.70;;;;;;5056894;28;20315;-77
2021/04/11 12:05:24;;;;;;;4.97;2.00;;;7.60;23.30;;;;;;5074600;28;20320;-79
2021/04/11 12:07:52;;;;;;;4.37;1.87;;;7.50;20.10;;;;;;5074873;28;20211;-78
2021/04/11 12:10:29;;;;;;;4.37;2.40;;;7.60;17.00;;;;;;5074821;28;20192;-77
2021/04/11 12:13:14;;;;;;;3.97;1.90;;;7.50;11.50;;;;;;5074273;28;20179;-79
2021/04/11 12:16:00;;;;;;;4.53;2.20;;;7.60;13.70;;;;;;5056599;28;20172;-78
2021/04/11 12:18:30;;;;;;;3.30;1.47;;;7.70;12.40;;;;;;5056590;28;20263;-77
2021/04/11 12:21:16;;;;;;;2.93;1.30;;;7.80;1.00;;;;;;5074591;28;20179;-79
2021/04/11 12:23:47;;;;;;;3.50;1.20;;;7.70;1.00;;;;;;5075013;28;20164;-77
2021/04/11 12:26:18;;;;;;;6.07;1.80;;;7.70;1.00;;;;;;5074216;28;20207;-79
2021/04/11 12:28:46;;;;;;;3.23;1.83;;;7.80;1.00;;;;;;5074342;28;20183;-79
2021/04/11 12:31:33;;;;;;;6.13;2.00;;;7.70;1.00;;;;;;5074095;28;20164;-79
2021/04/11 12:34:24;;;;;;;4.27;2.40;;;7.70;1.00;;;;;;5074720;28;20172;-78
2021/04/11 12:36:52;;;;;;;4.60;2.47;;;7.80;1.00;;;;;;5074052;28;20693;-78
2021/04/11 12:39:27;;;;;;;5.53;3.17;;;7.90;1.00;;;;;;5074323;28;20561;-79
2021/04/11 12:42:12;;;;;;;3.03;2.73;;;8.00;1.00;;;;;;5074188;28;20668;-77
2021/04/11 12:45:02;;;;;;;4.57;2.03;;;8.00;1.00;;;;;;5074021;28;20186;-78
2021/04/11 12:47:59;;;;;;;8.33;2.43;;;8.00;1.00;;;;;;5056471;28;20181;-77
2021/04/11 12:50:35;;;;;;;4.30;2.57;;;7.90;1.00;;;;;;5074209;28;20326;-79
2021/04/11 12:53:14;;;;;;;4.43;2.20;;;7.90;1.00;;;;;;5056326;28;20179;-79
2021/04/11 12:55:59;;;;;;;4.10;2.10;;;8.00;1.00;;;;;;5073791;28;20652;-79
2021/04/11 12:58:35;;;;;;;4.50;2.50;;;8.00;1.00;;;;;;5074228;28;20169;-79
2021/04/11 13:01:22;;;;;;;4.87;2.30;;;8.10;1.00;;;;;;5073666;28;20165;-78
2021/04/11 13:03:53;;;;;;;4.50;2.20;;;8.10;1.00;;;;;;5073928;28;20183;-77
2021/04/11 13:06:42;;;;;;;7.60;1.73;;;8.10;1.00;;;;;;5073211;28;20295;-78
2021/04/11 13:09:32;;;;;;;3.97;1.90;;;8.10;1.00;;;;;;5073639;28;20210;-78
2021/04/11 13:12:03;;;;;;;3.23;1.77;;;8.00;1.00;;;;;;5055497;28;20658;-79
2021/04/11 13:14:37;;;;;;;8.83;2.10;;;8.00;1.00;;;;;;5073804;28;20164;-78
2021/04/11 13:17:14;;;;;;;4.00;1.70;;;8.00;1.00;;;;;;5074372;28;20165;-79
2021/04/11 13:19:51;;;;;;;2.80;1.20;;;8.10;1.00;;;;;;5074211;28;20187;-79
2021/04/11 13:22:24;;;;;;;2.47;1.50;;;8.20;1.00;;;;;;5073641;28;20202;-77
2021/04/11 13:25:12;;;;;;;5.67;2.30;;;8.30;1.00;;;;;;5073783;28;20172;-84
2021/04/11 13:28:04;;;;;;;3.80;2.07;;;8.50;1.00;;;;;;5073621;28;20168;-83
2021/04/11 13:30:47;;;;;;;4.57;2.00;;;8.50;1.00;;;;;;5055224;28;20699;-77
2021/04/11 13:33:22;;;;;;;4.23;2.20;;;8.40;1.00;;;;;;5073071;28;20179;-84
2021/04/11 13:35:58;;;;;;;5.83;1.60;;;8.40;1.00;;;;;;5055625;28;20701;-79
2021/04/11 13:38:45;;;;;;;3.37;1.67;;;8.30;1.00;;;;;;5054984;28;20238;-84
2021/04/11 13:41:19;;;;;;;5.30;1.73;;;8.40;1.00;;;;;;5072918;28;20251;-79
2021/04/11 13:43:45;;;;;;;4.03;1.60;;;8.30;1.00;;;;;;5072968;28;20171;-80
2021/04/11 13:46:18;;;;;;;5.87;2.30;;;8.30;1.00;;;;;;5054894;28;20218;-85
2021/04/11 13:49:06;;;;;;;5.63;1.60;;;8.30;1.00;;;;;;5073107;28;20218;-80
2021/04/11 13:51:36;;;;;;;2.90;1.40;;;8.30;1.00;;;;;;5072929;28;20191;-79